createdAt,value
2022-12-11T00:01:58.230Z,91652.88
2022-12-11T00:04:25.270Z,91677.13
2022-12-11T00:06:52.816Z,91672.97
2022-12-11T00:09:20.816Z,91671.00
2022-12-11T00:11:48.080Z,91653.47
2022-12-11T00:14:15.462Z,91655.06
2022-12-11T00:16:42.584Z,91650.53
2022-12-11T00:19:09.338Z,91662.75
2022-12-11T00:21:36.215Z,91662.97
2022-12-11T00:24:03.108Z,91677.72
2022-12-11T00:26:29.905Z,91664.16
2022-12-11T00:28:57.620Z,91669.84
2022-12-11T00:31:24.866Z,91649.75
2022-12-11T00:33:51.835Z,91676.19
2022-12-11T00:36:21.542Z,91672.44
2022-12-11T00:38:49.103Z,91661.41
2022-12-11T00:41:16.439Z,91662.78
2022-12-11T00:43:43.577Z,91640.31
2022-12-11T00:46:11.547Z,91641.28
2022-12-11T00:48:38.741Z,91640.69
2022-12-11T00:51:05.995Z,91659.41
2022-12-11T00:53:33.257Z,91643.66
2022-12-11T00:56:00.121Z,91634.16
2022-12-11T00:58:27.060Z,91643.25
2022-12-11T01:00:53.869Z,91663.75
2022-12-11T01:03:20.586Z,91663.56
2022-12-11T01:05:55.000Z,91642.69
2022-12-11T01:08:21.858Z,91640.31
2022-12-11T01:10:49.023Z,91625.31
2022-12-11T01:13:16.100Z,91662.75
2022-12-11T01:15:44.880Z,91663.75
2022-12-11T01:18:13.418Z,91637.69
2022-12-11T01:20:40.338Z,91635.06
2022-12-11T01:23:07.066Z,91670.50
2022-12-11T01:25:35.853Z,91672.50
2022-12-11T01:28:02.662Z,91673.47
2022-12-11T01:30:29.602Z,91667.13
2022-12-11T01:32:56.454Z,91694.72
2022-12-11T01:35:23.335Z,91650.91
2022-12-11T01:37:50.197Z,91593.97
2022-12-11T01:40:18.883Z,91559.88
2022-12-11T01:42:45.803Z,91562.69
2022-12-11T01:45:21.503Z,91560.75
2022-12-11T01:47:52.899Z,91579.25
2022-12-11T01:50:19.775Z,91547.09
2022-12-11T01:52:47.759Z,91559.88
2022-12-11T01:55:15.072Z,91514.63
2022-12-11T01:57:43.840Z,91519.19
2022-12-11T02:00:11.178Z,91581.50
2022-12-11T02:02:41.060Z,91545.50
2022-12-11T02:05:09.239Z,91573.69
2022-12-11T02:07:40.678Z,91491.84
2022-12-11T02:10:08.637Z,91500.63
2022-12-11T02:12:53.333Z,91500.47
2022-12-11T02:15:47.546Z,91436.88
2022-12-11T02:18:29.355Z,91476.88
2022-12-11T02:20:59.486Z,91485.59
2022-12-11T02:23:28.888Z,91505.09
2022-12-11T02:26:04.630Z,91490.41
2022-12-11T02:28:35.250Z,91479.28
2022-12-11T02:31:05.788Z,91452.41
2022-12-11T02:33:55.578Z,91471.91
2022-12-11T02:36:25.109Z,91484.53
2022-12-11T02:38:53.328Z,91471.28
2022-12-11T02:41:21.730Z,91492.28
2022-12-11T02:43:49.605Z,91539.78
2022-12-11T02:46:18.219Z,91529.31
2022-12-11T02:48:46.385Z,91504.41
2022-12-11T02:51:14.913Z,91500.03
2022-12-11T02:53:43.214Z,91502.47
2022-12-11T02:56:20.796Z,91479.72
2022-12-11T02:58:58.670Z,91475.53
2022-12-11T03:01:26.780Z,91440.63
2022-12-11T03:03:55.068Z,91492.34
2022-12-11T03:06:22.513Z,91487.81
2022-12-11T03:08:51.925Z,91516.59
2022-12-11T03:11:18.673Z,91500.88
2022-12-11T03:13:45.617Z,91497.81
2022-12-11T03:16:15.593Z,91520.06
2022-12-11T03:19:07.494Z,91514.97
2022-12-11T03:21:44.685Z,91503.41
2022-12-11T03:24:22.363Z,91535.97
2022-12-11T03:26:57.789Z,91560.72
2022-12-11T03:29:31.907Z,91608.28
2022-12-11T03:32:20.031Z,91592.81
2022-12-11T03:35:17.538Z,91579.31
2022-12-11T03:37:45.235Z,91585.69
2022-12-11T03:40:14.644Z,91609.97
2022-12-11T03:42:43.302Z,91590.47
2022-12-11T03:45:10.792Z,91589.91
2022-12-11T03:47:39.475Z,91596.50
2022-12-11T03:50:09.165Z,91595.94
2022-12-11T03:52:40.927Z,91606.06
2022-12-11T03:55:13.745Z,91620.06
2022-12-11T03:57:40.904Z,91607.97
2022-12-11T04:00:10.819Z,91615.88
2022-12-11T04:02:41.627Z,91609.00
2022-12-11T04:05:09.165Z,91583.50
2022-12-11T04:07:36.506Z,91600.00
2022-12-11T04:10:04.734Z,91591.88
2022-12-11T04:12:31.374Z,91572.03
2022-12-11T04:15:04.043Z,91576.97
2022-12-11T04:17:54.911Z,91593.59
2022-12-11T04:20:40.760Z,91571.59
2022-12-11T04:23:31.126Z,91587.22
2022-12-11T04:26:15.395Z,91626.50
2022-12-11T04:28:43.493Z,91644.44
2022-12-11T04:31:21.648Z,91652.41
2022-12-11T04:33:48.698Z,91626.28
2022-12-11T04:36:15.548Z,91667.81
2022-12-11T04:38:42.391Z,91655.97
2022-12-11T04:41:12.075Z,91693.72
2022-12-11T04:43:38.973Z,91648.63
2022-12-11T04:46:08.910Z,91690.59
2022-12-11T04:48:36.723Z,91677.59
2022-12-11T04:51:03.652Z,91664.34
2022-12-11T04:53:30.530Z,91686.22
2022-12-11T04:55:57.569Z,91698.78
2022-12-11T04:58:25.384Z,91695.28
2022-12-11T05:00:52.660Z,91646.91
2022-12-11T05:03:20.212Z,91700.19
2022-12-11T05:05:51.043Z,91709.63
2022-12-11T05:08:19.077Z,91607.44
2022-12-11T05:10:54.709Z,91680.44
2022-12-11T05:13:21.465Z,91685.41
2022-12-11T05:15:48.344Z,91667.72
2022-12-11T05:18:15.064Z,91683.22
2022-12-11T05:20:41.768Z,91676.81
2022-12-11T05:23:08.469Z,91700.19
2022-12-11T05:25:35.229Z,91684.34
2022-12-11T05:28:01.959Z,91696.09
2022-12-11T05:30:28.676Z,91696.00
2022-12-11T05:32:55.452Z,91711.84
2022-12-11T05:35:22.278Z,91697.78
2022-12-11T05:37:49.070Z,91664.50
2022-12-11T05:40:15.917Z,91702.56
2022-12-11T05:42:42.653Z,91690.75
2022-12-11T05:45:10.338Z,91649.53
2022-12-11T05:47:37.408Z,91648.75
2022-12-11T05:50:04.490Z,91650.06
2022-12-11T05:52:31.850Z,91652.25
2022-12-11T05:54:58.703Z,91622.47
2022-12-11T05:57:25.472Z,91650.28
2022-12-11T05:59:52.315Z,91639.03
2022-12-11T06:02:19.425Z,91615.91
2022-12-11T06:04:46.292Z,91685.69
2022-12-11T06:07:13.335Z,91614.03
2022-12-11T06:09:40.146Z,91612.44
2022-12-11T06:12:06.944Z,91639.47
2022-12-11T06:14:33.734Z,91594.31
2022-12-11T06:17:01.634Z,91605.44
2022-12-11T06:19:31.979Z,91632.38
2022-12-11T06:22:03.295Z,91654.75
2022-12-11T06:24:30.072Z,91681.47
2022-12-11T06:26:56.948Z,91728.25
2022-12-11T06:29:23.662Z,91655.97
2022-12-11T06:31:50.518Z,91656.59
2022-12-11T06:34:17.330Z,91686.84
2022-12-11T06:36:44.172Z,91678.59
2022-12-11T06:39:10.936Z,91677.13
2022-12-11T06:41:38.000Z,91683.78
2022-12-11T06:44:04.894Z,91677.59
2022-12-11T06:46:31.695Z,91711.75
2022-12-11T06:48:58.394Z,91691.63
2022-12-11T06:51:25.152Z,91675.69
2022-12-11T06:53:54.222Z,91703.28
2022-12-11T06:56:21.698Z,91682.72
2022-12-11T06:58:48.601Z,91703.72
2022-12-11T07:01:19.857Z,91702.44
2022-12-11T07:03:46.825Z,91689.50
2022-12-11T07:06:14.039Z,91696.13
2022-12-11T07:08:40.884Z,91706.22
2022-12-11T07:11:10.768Z,91721.13
2022-12-11T07:13:37.717Z,91699.75
2022-12-11T07:16:10.739Z,91694.75
2022-12-11T07:18:39.285Z,91706.75
2022-12-11T07:21:06.735Z,91716.59
2022-12-11T07:23:34.605Z,91703.19
2022-12-11T07:26:08.376Z,91727.19
2022-12-11T07:28:35.633Z,91697.72
2022-12-11T07:31:07.193Z,91716.75
2022-12-11T07:33:34.491Z,91736.06
2022-12-11T07:36:05.186Z,91748.03
2022-12-11T07:38:32.112Z,91725.72
2022-12-11T07:41:03.106Z,91702.97
2022-12-11T07:43:29.919Z,91757.16
2022-12-11T07:46:07.914Z,91754.94
2022-12-11T07:48:37.946Z,91761.38
2022-12-11T07:51:15.633Z,91769.06
2022-12-11T07:53:45.400Z,91753.69
2022-12-11T07:56:12.249Z,91750.47
2022-12-11T07:58:39.444Z,91746.06
2022-12-11T08:01:10.564Z,91744.50
2022-12-11T08:03:37.367Z,91740.34
2022-12-11T08:06:04.303Z,91771.34
2022-12-11T08:08:31.293Z,91772.88
2022-12-11T08:11:06.213Z,91765.22
2022-12-11T08:13:33.202Z,91763.47
2022-12-11T08:16:03.929Z,91740.00
2022-12-11T08:18:30.673Z,91771.69
2022-12-11T08:20:57.527Z,91778.25
2022-12-11T08:23:24.489Z,91808.94
2022-12-11T08:25:51.226Z,91810.19
2022-12-11T08:28:18.421Z,91768.44
2022-12-11T08:30:45.268Z,91784.13
2022-12-11T08:33:12.178Z,91769.69
2022-12-11T08:35:39.905Z,91771.34
2022-12-11T08:38:06.700Z,91777.69
2022-12-11T08:40:33.430Z,91770.47
2022-12-11T08:43:00.191Z,91782.94
2022-12-11T08:45:27.337Z,91762.06
2022-12-11T08:47:54.133Z,91762.56
2022-12-11T08:50:22.184Z,91763.09
2022-12-11T08:52:48.952Z,91772.84
2022-12-11T08:55:15.882Z,91764.59
2022-12-11T08:57:42.656Z,91758.97
2022-12-11T09:00:12.442Z,91773.38
2022-12-11T09:02:39.427Z,91772.22
2022-12-11T09:05:08.113Z,91783.84
2022-12-11T09:07:36.517Z,91788.22
2022-12-11T09:10:04.062Z,91778.44
2022-12-11T09:12:31.449Z,91789.59
2022-12-11T09:14:58.197Z,91770.75
2022-12-11T09:17:24.982Z,91775.59
2022-12-11T09:19:51.781Z,91767.13
2022-12-11T09:22:18.645Z,91764.47
2022-12-11T09:24:46.505Z,91765.47
2022-12-11T09:27:13.332Z,91752.03
2022-12-11T09:29:40.200Z,91773.34
2022-12-11T09:32:07.012Z,91776.88
2022-12-11T09:34:34.222Z,91765.16
2022-12-11T09:37:01.037Z,91773.75
2022-12-11T09:39:27.891Z,91766.13
2022-12-11T09:42:09.836Z,91759.16
2022-12-11T09:44:47.227Z,91764.09
2022-12-11T09:47:32.360Z,91768.22
2022-12-11T09:50:09.345Z,91760.59
2022-12-11T09:52:48.498Z,91743.38
2022-12-11T09:55:18.732Z,91736.97
2022-12-11T09:57:48.392Z,91746.06
2022-12-11T10:00:20.528Z,91749.94
2022-12-11T10:03:02.919Z,91746.81
2022-12-11T10:05:48.471Z,91753.84
2022-12-11T10:08:21.491Z,91747.03
2022-12-11T10:11:24.927Z,91737.22
2022-12-11T10:13:57.330Z,91758.63
2022-12-11T10:16:33.280Z,91740.78
2022-12-11T10:19:00.232Z,91740.91
2022-12-11T10:21:28.064Z,91769.31
2022-12-11T10:23:59.420Z,91730.97
2022-12-11T10:26:28.495Z,91752.91
2022-12-11T10:28:59.656Z,91747.41
2022-12-11T10:31:35.845Z,91743.09
2022-12-11T10:34:05.315Z,91741.81
2022-12-11T10:36:35.852Z,91740.44
2022-12-11T10:39:03.821Z,91741.88
2022-12-11T10:41:42.873Z,91732.84
2022-12-11T10:44:22.271Z,91718.84
2022-12-11T10:47:13.031Z,91716.97
2022-12-11T10:49:44.323Z,91723.22
2022-12-11T10:52:23.110Z,91720.25
2022-12-11T10:55:18.573Z,91717.88
2022-12-11T10:57:46.180Z,91728.13
2022-12-11T11:00:37.134Z,91720.41
2022-12-11T11:03:06.099Z,91720.97
2022-12-11T11:05:35.879Z,91712.91
2022-12-11T11:08:22.847Z,91705.91
2022-12-11T11:10:54.364Z,91705.31
2022-12-11T11:13:23.808Z,91707.47
2022-12-11T11:15:59.853Z,91701.53
2022-12-11T11:18:28.530Z,91704.44
2022-12-11T11:20:55.492Z,91711.91
2022-12-11T11:23:23.278Z,91716.72
2022-12-11T11:25:57.559Z,91700.69
2022-12-11T11:28:28.079Z,91706.72
2022-12-11T11:31:01.757Z,91701.56
2022-12-11T11:33:29.544Z,91698.09
2022-12-11T11:36:02.623Z,91716.53
2022-12-11T11:38:38.955Z,91726.19
2022-12-11T11:41:15.227Z,91722.03
2022-12-11T11:43:48.170Z,91705.63
2022-12-11T11:46:15.355Z,91698.91
2022-12-11T11:49:11.800Z,91701.38
2022-12-11T11:52:01.649Z,91687.91
2022-12-11T11:54:38.018Z,91674.47
2022-12-11T11:57:27.544Z,91679.22
2022-12-11T11:59:56.629Z,91686.06
2022-12-11T12:02:23.391Z,91689.09
2022-12-11T12:04:51.396Z,91685.72
2022-12-11T12:07:23.958Z,91684.78
2022-12-11T12:09:53.582Z,91684.06
2022-12-11T12:12:41.594Z,91687.75
2022-12-11T12:15:18.546Z,91689.88
2022-12-11T12:17:56.195Z,91694.34
2022-12-11T12:20:38.285Z,91688.00
2022-12-11T12:23:23.751Z,91671.47
2022-12-11T12:26:04.683Z,91660.41
2022-12-11T12:28:31.423Z,91665.66
2022-12-11T12:31:13.400Z,91665.19
2022-12-11T12:34:01.977Z,91672.09
2022-12-11T12:37:09.737Z,91672.84
2022-12-11T12:39:36.433Z,91686.34
2022-12-11T12:42:37.263Z,91688.94
2022-12-11T12:45:24.039Z,91686.25
2022-12-11T12:47:53.536Z,91704.00
2022-12-11T12:50:23.304Z,91705.91
2022-12-11T12:52:51.699Z,91726.84
2022-12-11T12:55:23.136Z,91743.88
2022-12-11T12:58:00.651Z,91754.69
2022-12-11T13:00:37.611Z,91765.19
2022-12-11T13:03:13.797Z,91765.53
2022-12-11T13:05:43.575Z,91793.16
2022-12-11T13:08:11.705Z,91783.78
2022-12-11T13:10:40.781Z,91773.38
2022-12-11T13:13:26.553Z,91777.31
2022-12-11T13:15:53.575Z,91798.19
2022-12-11T13:18:38.783Z,91818.97
2022-12-11T13:21:27.449Z,91783.38
2022-12-11T13:23:55.041Z,91813.56
2022-12-11T13:26:30.854Z,91826.00
2022-12-11T13:28:58.402Z,91842.75
2022-12-11T13:31:38.999Z,91835.59
2022-12-11T13:34:16.555Z,91837.84
2022-12-11T13:36:48.779Z,91844.97
2022-12-11T13:39:30.674Z,91850.78
2022-12-11T13:42:05.339Z,91860.91
2022-12-11T13:44:41.870Z,91852.31
2022-12-11T13:47:13.768Z,91865.53
2022-12-11T13:49:43.042Z,91877.34
2022-12-11T13:52:22.130Z,91878.22
2022-12-11T13:54:51.166Z,91879.78
2022-12-11T13:57:21.451Z,91898.03
2022-12-11T13:59:50.888Z,91899.91
2022-12-11T14:02:30.488Z,91912.75
2022-12-11T14:05:00.844Z,91923.41
2022-12-11T14:07:39.222Z,91928.69
2022-12-11T14:10:09.847Z,91932.84
2022-12-11T14:12:37.283Z,91932.13
2022-12-11T14:15:04.982Z,91919.03
2022-12-11T14:17:33.647Z,91948.56
2022-12-11T14:20:05.917Z,91937.81
2022-12-11T14:22:32.814Z,91943.00
2022-12-11T14:25:03.564Z,91943.69
2022-12-11T14:27:31.073Z,91958.41
2022-12-11T14:29:57.853Z,91970.53
2022-12-11T14:32:42.396Z,91959.38
2022-12-11T14:35:21.816Z,91959.88
2022-12-11T14:37:48.731Z,91961.09
2022-12-11T14:40:20.840Z,91959.72
2022-12-11T14:42:58.571Z,91973.09
2022-12-11T14:45:34.379Z,91974.41
2022-12-11T14:48:02.523Z,91973.72
2022-12-11T14:50:47.501Z,91981.47
2022-12-11T14:53:23.038Z,91987.22
2022-12-11T14:55:50.686Z,91992.91
2022-12-11T14:58:26.648Z,91987.22
2022-12-11T15:00:57.815Z,91993.19
2022-12-11T15:03:27.582Z,91985.25
2022-12-11T15:05:56.773Z,91998.19
2022-12-11T15:08:27.752Z,91996.47
2022-12-11T15:11:17.526Z,91995.66
2022-12-11T15:13:58.952Z,91996.81
2022-12-11T15:16:27.617Z,92000.66
2022-12-11T15:18:55.643Z,92006.63
2022-12-11T15:21:30.614Z,92016.22
2022-12-11T15:24:00.031Z,92014.78
2022-12-11T15:26:45.527Z,92013.03
2022-12-11T15:29:35.597Z,92010.81
2022-12-11T15:32:08.447Z,92019.25
2022-12-11T15:34:49.397Z,92018.28
2022-12-11T15:37:33.858Z,92023.19
2022-12-11T15:40:01.894Z,92029.09
2022-12-11T15:42:36.579Z,92031.19
2022-12-11T15:45:06.295Z,92030.38
2022-12-11T15:47:33.077Z,92026.91
2022-12-11T15:50:02.389Z,92028.84
2022-12-11T15:52:29.287Z,92019.16
2022-12-11T15:54:56.302Z,92035.06
2022-12-11T15:57:24.094Z,92036.50
2022-12-11T15:59:52.592Z,92043.69
2022-12-11T16:02:19.439Z,92054.16
2022-12-11T16:04:46.298Z,92054.16
2022-12-11T16:07:22.419Z,92057.19
2022-12-11T16:09:49.660Z,92060.38
2022-12-11T16:12:16.814Z,92067.84
2022-12-11T16:14:44.918Z,92084.56
2022-12-11T16:17:14.108Z,92091.84
2022-12-11T16:19:41.666Z,92086.47
2022-12-11T16:22:09.419Z,92094.56
2022-12-11T16:24:36.897Z,92099.66
2022-12-11T16:27:05.145Z,92103.78
2022-12-11T16:29:40.575Z,92100.31
2022-12-11T16:32:08.398Z,92098.38
2022-12-11T16:34:36.185Z,92099.81
2022-12-11T16:37:03.169Z,92092.38
2022-12-11T16:39:29.889Z,92103.31
2022-12-11T16:41:56.619Z,92101.41
2022-12-11T16:44:25.061Z,92104.41
2022-12-11T16:46:52.881Z,92106.00
2022-12-11T16:49:20.436Z,92113.16
2022-12-11T16:51:49.353Z,92117.63
2022-12-11T16:54:15.939Z,92117.63
2022-12-11T16:56:44.195Z,92116.03
2022-12-11T16:59:12.894Z,92120.63
2022-12-11T17:01:40.708Z,92122.38
2022-12-11T17:04:07.785Z,92126.31
2022-12-11T17:06:34.631Z,92135.38
2022-12-11T17:09:01.604Z,92139.38
2022-12-11T17:11:28.499Z,92145.25
2022-12-11T17:13:56.609Z,92142.03
2022-12-11T17:16:26.090Z,92157.63
2022-12-11T17:18:53.345Z,92148.75
2022-12-11T17:21:21.143Z,92146.97
2022-12-11T17:23:48.675Z,92151.75
2022-12-11T17:26:16.558Z,92155.06
2022-12-11T17:28:43.546Z,92154.75
2022-12-11T17:31:14.293Z,92151.28
2022-12-11T17:33:41.255Z,92149.22
2022-12-11T17:36:08.516Z,92154.44
2022-12-11T17:38:35.876Z,92141.59
2022-12-11T17:41:06.480Z,92162.25
2022-12-11T17:43:33.267Z,92166.22
2022-12-11T17:46:00.039Z,92156.19
2022-12-11T17:48:26.833Z,92165.28
2022-12-11T17:50:54.215Z,92170.19
2022-12-11T17:53:21.545Z,92165.09
2022-12-11T17:55:48.745Z,92177.31
2022-12-11T17:58:18.630Z,92182.91
2022-12-11T18:00:47.810Z,92179.41
2022-12-11T18:03:15.079Z,92180.50
2022-12-11T18:05:43.887Z,92188.94
2022-12-11T18:08:19.619Z,92195.28
2022-12-11T18:10:46.412Z,92191.78
2022-12-11T18:14:03.747Z,92192.72
2022-12-11T18:16:38.085Z,92193.03
2022-12-11T18:19:06.086Z,92199.06
2022-12-11T18:21:34.826Z,92194.16
2022-12-11T18:24:02.054Z,92190.03
2022-12-11T18:26:29.197Z,92200.66
2022-12-11T18:28:56.261Z,92189.69
2022-12-11T18:31:23.582Z,92192.09
2022-12-11T18:33:50.963Z,92191.91
2022-12-11T18:36:19.375Z,92193.84
2022-12-11T18:38:47.245Z,92194.31
2022-12-11T18:41:14.901Z,92201.47
2022-12-11T18:43:42.033Z,92207.16
2022-12-11T18:46:11.776Z,92208.09
2022-12-11T18:48:38.725Z,92221.75
2022-12-11T18:51:10.734Z,92220.13
2022-12-11T18:53:39.601Z,92215.56
2022-12-11T18:56:09.155Z,92220.47
2022-12-11T18:58:36.053Z,92220.00
2022-12-11T19:01:08.607Z,92218.78
2022-12-11T19:03:35.545Z,92216.06
2022-12-11T19:06:10.959Z,92214.63
2022-12-11T19:27:02.206Z,92239.28
2022-12-11T19:29:33.797Z,92238.16
2022-12-11T19:32:04.280Z,92255.19
2022-12-11T19:34:31.104Z,92256.47
2022-12-11T19:36:58.056Z,92263.44
2022-12-11T19:39:25.135Z,92265.97
2022-12-11T19:41:51.951Z,92266.63
2022-12-11T19:44:18.720Z,92269.19
2022-12-11T19:46:45.681Z,92276.81
2022-12-11T19:49:12.673Z,92278.22
2022-12-11T19:51:40.836Z,92291.22
2022-12-11T19:54:11.210Z,92279.81
2022-12-11T19:56:38.548Z,92280.13
2022-12-11T19:59:08.443Z,92266.31
2022-12-11T20:14:42.580Z,92264.69
2022-12-11T20:17:12.347Z,92261.03
2022-12-11T20:19:41.755Z,92262.63
2022-12-11T20:22:09.253Z,92261.19
2022-12-11T20:24:36.508Z,92273.41
2022-12-11T20:27:03.639Z,92271.81
2022-12-11T20:29:30.518Z,92273.75
2022-12-11T20:31:59.878Z,92257.38
2022-12-11T20:34:27.209Z,92256.41
2022-12-11T20:36:54.635Z,92259.91
2022-12-11T20:39:21.481Z,92259.28
2022-12-11T20:41:48.419Z,92272.63
2022-12-11T20:44:15.289Z,92277.09
2022-12-11T20:46:42.005Z,92279.41
2022-12-11T20:49:13.037Z,92278.91
2022-12-11T20:51:40.092Z,92263.50
2022-12-11T20:54:07.018Z,92268.72
2022-12-11T20:56:33.871Z,92287.66
2022-12-11T20:59:00.932Z,92284.50
2022-12-11T21:01:30.677Z,92275.75
2022-12-11T21:03:58.335Z,92277.03
2022-12-11T21:06:31.220Z,92282.31
2022-12-11T21:09:04.962Z,92274.88
2022-12-11T21:11:31.702Z,92278.97
2022-12-11T21:13:58.539Z,92280.50
2022-12-11T21:16:25.863Z,92271.66
2022-12-11T21:18:53.472Z,92272.56
2022-12-11T21:21:20.383Z,92276.25
2022-12-11T21:23:47.120Z,92279.38
2022-12-11T21:26:14.033Z,92284.59
2022-12-11T21:28:40.847Z,92282.63
2022-12-11T21:31:10.167Z,92282.50
2022-12-11T21:33:37.156Z,92283.19
2022-12-11T21:36:05.963Z,92282.94
2022-12-11T21:38:33.002Z,92285.84
2022-12-11T21:41:13.697Z,92298.28
2022-12-11T21:44:00.515Z,92287.34
2022-12-11T21:46:28.867Z,92290.38
2022-12-11T21:48:55.939Z,92295.28
2022-12-11T21:51:35.687Z,92284.38
2022-12-11T21:54:05.200Z,92284.50
2022-12-11T21:56:32.106Z,92282.25
2022-12-11T21:58:58.883Z,92283.84
2022-12-11T22:01:31.552Z,92286.38
2022-12-11T22:03:59.044Z,92289.44
2022-12-11T22:06:25.936Z,92291.53
2022-12-11T22:08:52.900Z,92295.50
2022-12-11T22:11:23.988Z,92297.56
2022-12-11T22:13:50.787Z,92291.03
2022-12-11T22:16:17.723Z,92298.00
2022-12-11T22:18:44.793Z,92292.59
2022-12-11T22:21:11.646Z,92296.22
2022-12-11T22:23:42.037Z,92298.63
2022-12-11T22:26:11.198Z,92299.28
2022-12-11T22:28:37.966Z,92303.78
2022-12-11T22:31:04.789Z,92314.69
2022-12-11T22:33:31.532Z,92302.75
2022-12-11T22:35:59.490Z,92303.41
2022-12-11T22:38:26.640Z,92307.84
2022-12-11T22:40:54.648Z,92313.75
2022-12-11T22:43:21.824Z,92312.94
2022-12-11T22:45:50.201Z,92318.47
2022-12-11T22:48:17.063Z,92321.34
2022-12-11T22:50:44.329Z,92330.72
2022-12-11T22:53:11.123Z,92328.03
2022-12-11T22:55:39.753Z,92322.19
2022-12-11T22:58:07.225Z,92321.91
2022-12-11T23:00:34.080Z,92321.44
2022-12-11T23:03:02.040Z,92340.69
2022-12-11T23:05:29.247Z,92326.84
2022-12-11T23:07:56.158Z,92332.72
2022-12-11T23:10:23.263Z,92331.47
2022-12-11T23:12:50.253Z,92344.03
2022-12-11T23:15:17.380Z,92344.84
2022-12-11T23:17:44.151Z,92346.13
2022-12-11T23:20:12.212Z,92341.22
2022-12-11T23:22:39.000Z,92349.31
2022-12-11T23:25:06.234Z,92331.84
2022-12-11T23:27:32.946Z,92343.09
2022-12-11T23:29:59.781Z,92345.31
2022-12-11T23:32:27.534Z,92353.06
2022-12-11T23:34:54.297Z,92349.56
2022-12-11T23:37:21.094Z,92347.31
2022-12-11T23:39:47.932Z,92340.47
2022-12-11T23:42:14.674Z,92352.84
2022-12-11T23:44:41.469Z,92353.00
2022-12-11T23:47:08.258Z,92353.94
2022-12-11T23:49:35.835Z,92356.81
2022-12-11T23:52:02.866Z,92369.38
2022-12-11T23:54:30.838Z,92375.28
2022-12-11T23:56:57.666Z,92382.44
2022-12-11T23:59:24.469Z,92378.31
